Time;durP1;ratioP1;P1;durP2;ratioP2;P2;SDS_P1;SDS_P2;PMS_P1;PMS_P2;Temp;Humidity;BMP_temperature;BMP_pressure;BME280_temperature;BME280_humidity;BME280_pressure;Samples;Min_cycle;Max_cycle;Signal;HPM_P1;HPM_P2
2024/04/20 00:01:47;;;;;;;4.88;1.85;;;8.50;98.00;;;;;;4206308;28;20397;-59
2024/04/20 00:03:50;;;;;;;1.65;1.10;;;8.50;98.40;;;;;;4180028;28;20060;-58
2024/04/20 00:05:51;;;;;;;4.28;0.88;;;8.50;98.30;;;;;;4206797;28;20347;-58
2024/04/20 00:07:52;;;;;;;1.38;0.60;;;8.40;98.70;;;;;;4198532;28;20048;-59
2024/04/20 00:09:56;;;;;;;3.08;0.70;;;8.40;98.90;;;;;;4197596;28;20056;-59
2024/04/20 00:11:57;;;;;;;5.20;1.70;;;8.40;98.70;;;;;;4207778;28;20044;-58
2024/04/20 00:14:00;;;;;;;13.32;1.38;;;8.40;98.70;;;;;;4196663;28;20054;-61
2024/04/20 00:16:02;;;;;;;2.50;1.25;;;8.40;98.60;;;;;;4188324;28;20054;-59
2024/04/20 00:18:03;;;;;;;2.08;1.27;;;8.40;98.40;;;;;;4200072;28;20048;-59
2024/04/20 00:20:05;;;;;;;2.25;1.20;;;8.40;98.20;;;;;;4180753;28;20059;-58
2024/04/20 00:22:07;;;;;;;2.80;1.27;;;8.30;97.80;;;;;;4206762;28;20052;-58
2024/04/20 00:24:08;;;;;;;1.38;0.85;;;8.20;97.60;;;;;;4196250;28;20054;-58
2024/04/20 00:26:10;;;;;;;2.65;1.30;;;8.20;97.90;;;;;;4200049;28;20161;-58
2024/04/20 00:28:12;;;;;;;6.63;1.13;;;8.10;98.10;;;;;;4207388;28;20048;-58
2024/04/20 00:30:13;;;;;;;3.78;0.82;;;8.10;98.30;;;;;;4210968;28;20509;-59
2024/04/20 00:32:14;;;;;;;1.63;1.02;;;8.00;98.20;;;;;;4201133;28;20165;-58
2024/04/20 00:34:15;;;;;;;1.55;0.57;;;8.10;97.80;;;;;;4212911;28;20051;-58
2024/04/20 00:36:17;;;;;;;1.55;0.75;;;8.00;97.90;;;;;;4206844;28;20409;-59
2024/04/20 00:38:18;;;;;;;1.02;0.60;;;8.10;98.40;;;;;;4205481;28;20539;-58
2024/04/20 00:40:19;;;;;;;0.88;0.50;;;8.10;98.10;;;;;;4212493;28;20044;-59
2024/04/20 00:42:22;;;;;;;2.97;1.33;;;8.10;98.10;;;;;;4200802;28;20551;-61
2024/04/20 00:44:24;;;;;;;1.48;0.60;;;8.00;98.60;;;;;;4212225;28;20108;-58
2024/04/20 00:46:25;;;;;;;5.15;1.60;;;8.00;98.70;;;;;;4208690;28;20485;-59
2024/04/20 00:48:27;;;;;;;4.97;1.13;;;8.00;98.30;;;;;;4203550;28;20047;-58
2024/04/20 00:50:29;;;;;;;2.83;1.27;;;8.00;98.40;;;;;;4212369;28;20058;-58
2024/04/20 00:52:31;;;;;;;8.07;1.42;;;7.90;98.40;;;;;;4200668;28;20040;-58
2024/04/20 00:54:35;;;;;;;3.60;0.98;;;7.90;98.70;;;;;;4211093;28;20051;-58
2024/04/20 00:56:37;;;;;;;9.32;2.80;;;7.80;98.60;;;;;;4210184;28;20139;-58
2024/04/20 00:58:43;;;;;;;1.60;0.60;;;7.90;98.10;;;;;;4202172;28;20088;-58
2024/04/20 01:00:45;;;;;;;1.85;0.75;;;7.90;98.00;;;;;;4212155;28;20044;-60
2024/04/20 01:02:47;;;;;;;1.42;0.75;;;7.80;98.20;;;;;;4201606;28;20406;-59
2024/04/20 01:04:49;;;;;;;3.90;1.13;;;7.80;97.90;;;;;;4210412;28;20062;-58
2024/04/20 01:06:50;;;;;;;15.88;2.80;;;7.70;97.80;;;;;;4210228;28;20529;-58
2024/04/20 01:08:52;;;;;;;1.10;0.47;;;7.70;97.90;;;;;;4212285;28;20066;-59
2024/04/20 01:10:54;;;;;;;4.80;1.65;;;7.70;98.60;;;;;;4211714;28;20108;-58
2024/04/20 01:13:00;;;;;;;1.17;0.73;;;7.70;98.50;;;;;;4203203;28;20040;-58
2024/04/20 01:15:04;;;;;;;1.23;0.50;;;7.70;98.30;;;;;;4210781;28;20048;-59
2024/04/20 01:17:05;;;;;;;3.83;0.65;;;7.60;98.50;;;;;;4210646;28;20062;-59
2024/04/20 01:19:11;;;;;;;3.55;1.90;;;7.60;98.60;;;;;;4200733;28;20048;-58
2024/04/20 01:21:14;;;;;;;2.88;0.90;;;7.60;98.30;;;;;;4211725;28;20489;-58
2024/04/20 01:23:16;;;;;;;2.05;1.33;;;7.50;98.40;;;;;;4210403;28;20055;-58
2024/04/20 01:25:17;;;;;;;8.05;2.45;;;7.60;98.20;;;;;;4199065;28;20061;-59
2024/04/20 01:27:20;;;;;;;1.27;0.50;;;7.60;98.40;;;;;;4197171;28;20118;-60
2024/04/20 01:29:21;;;;;;;5.90;1.63;;;7.60;98.30;;;;;;4206594;28;20041;-59
2024/04/20 01:31:22;;;;;;;3.10;1.25;;;7.50;98.50;;;;;;4195343;28;20061;-59
2024/04/20 01:33:24;;;;;;;4.30;0.75;;;7.50;98.70;;;;;;4202246;28;20048;-59
2024/04/20 01:35:27;;;;;;;1.00;0.60;;;7.50;98.40;;;;;;4200337;28;20053;-59
2024/04/20 01:37:28;;;;;;;1.13;0.45;;;7.50;98.30;;;;;;4196975;28;20044;-59
2024/04/20 01:39:30;;;;;;;2.03;0.80;;;7.50;98.50;;;;;;4200543;28;20045;-62
2024/04/20 01:41:31;;;;;;;1.00;0.77;;;7.40;98.60;;;;;;4212062;28;20077;-59
2024/04/20 01:43:34;;;;;;;1.13;0.60;;;7.40;98.50;;;;;;4206507;28;20534;-59
2024/04/20 01:45:36;;;;;;;2.08;1.23;;;7.40;98.60;;;;;;4205278;28;20048;-58
2024/04/20 01:47:37;;;;;;;1.25;0.68;;;7.40;98.50;;;;;;4211657;28;20052;-58
2024/04/20 01:49:38;;;;;;;4.10;1.00;;;7.40;98.50;;;;;;4198871;28;20048;-58
2024/04/20 01:51:39;;;;;;;2.05;0.68;;;7.30;98.80;;;;;;4211857;28;20092;-58
2024/04/20 01:53:40;;;;;;;2.75;1.10;;;7.30;98.90;;;;;;4207987;28;20048;-63
2024/04/20 01:55:42;;;;;;;1.85;0.52;;;7.20;98.80;;;;;;4186658;28;20052;-58
2024/04/20 01:57:43;;;;;;;0.70;0.43;;;7.20;99.00;;;;;;4214933;28;20088;-59
2024/04/20 01:59:46;;;;;;;4.75;2.05;;;7.30;99.10;;;;;;4203433;28;20048;-59
2024/04/20 02:01:51;;;;;;;18.05;4.55;;;7.20;99.10;;;;;;4213844;28;20040;-58
2024/04/20 02:03:52;;;;;;;4.93;0.52;;;7.20;99.30;;;;;;4216903;28;20040;-58
2024/04/20 02:05:53;;;;;;;0.82;0.65;;;7.20;99.70;;;;;;4204918;28;20133;-58
2024/04/20 02:07:55;;;;;;;1.55;1.02;;;7.20;99.60;;;;;;4215019;28;20054;-58
2024/04/20 02:09:56;;;;;;;3.22;0.63;;;7.10;99.70;;;;;;4204818;28;20074;-58
2024/04/20 02:11:57;;;;;;;0.85;0.40;;;7.20;99.50;;;;;;4212200;28;20050;-58
2024/04/20 02:13:58;;;;;;;1.88;1.15;;;7.10;99.10;;;;;;4213439;28;20414;-58
2024/04/20 02:16:01;;;;;;;1.88;1.63;;;7.10;99.20;;;;;;4203232;28;20097;-58
2024/04/20 02:18:02;;;;;;;1.20;0.68;;;7.00;99.00;;;;;;4214739;28;20550;-59
2024/04/20 02:20:05;;;;;;;7.28;1.83;;;7.00;99.20;;;;;;4206422;28;20071;-58
2024/04/20 02:22:06;;;;;;;4.03;0.93;;;7.00;99.00;;;;;;4210398;28;20052;-58
2024/04/20 02:24:08;;;;;;;5.15;1.23;;;7.00;98.90;;;;;;4213029;28;20510;-58
2024/04/20 02:26:09;;;;;;;1.98;0.73;;;7.10;98.60;;;;;;4209265;28;20048;-58
2024/04/20 02:28:11;;;;;;;1.30;0.52;;;7.00;98.50;;;;;;4181542;28;20052;-58
2024/04/20 02:30:12;;;;;;;2.28;1.23;;;7.00;98.40;;;;;;4187507;28;20045;-63
2024/04/20 02:32:15;;;;;;;2.38;0.40;;;6.90;98.40;;;;;;4203065;28;20044;-58
2024/04/20 02:34:17;;;;;;;1.38;0.80;;;6.90;98.60;;;;;;4198776;28;20041;-59
2024/04/20 02:36:18;;;;;;;2.10;0.93;;;6.90;98.30;;;;;;4209151;28;20482;-58
2024/04/20 02:38:19;;;;;;;2.75;1.10;;;6.80;98.20;;;;;;4197807;28;20415;-59
2024/04/20 02:40:21;;;;;;;1.13;0.77;;;6.80;98.30;;;;;;4202008;28;20439;-59
2024/04/20 02:42:22;;;;;;;0.73;0.30;;;6.80;98.50;;;;;;4205386;28;20045;-58
2024/04/20 02:44:23;;;;;;;0.70;0.70;;;6.80;98.50;;;;;;4197922;28;20071;-59
2024/04/20 02:46:24;;;;;;;3.25;1.45;;;6.80;98.40;;;;;;4209552;28;20051;-59
2024/04/20 02:48:27;;;;;;;1.75;0.55;;;6.80;98.80;;;;;;4197748;28;20486;-59
2024/04/20 02:50:28;;;;;;;2.20;0.88;;;6.80;98.80;;;;;;4200234;28;20047;-59
2024/04/20 02:52:30;;;;;;;1.58;0.43;;;6.90;98.20;;;;;;4207315;28;20067;-58
2024/04/20 02:54:31;;;;;;;1.42;0.70;;;6.90;98.00;;;;;;4197544;28;20449;-59
2024/04/20 02:56:32;;;;;;;0.75;0.45;;;6.90;98.30;;;;;;4207623;28;20048;-59
2024/04/20 02:58:33;;;;;;;1.65;0.93;;;6.90;98.10;;;;;;4199724;28;20105;-58
2024/04/20 03:00:35;;;;;;;3.65;1.63;;;6.80;97.80;;;;;;4198366;28;20102;-58
2024/04/20 03:02:36;;;;;;;8.13;2.70;;;6.80;98.00;;;;;;4208162;28;20040;-58
2024/04/20 03:04:38;;;;;;;1.33;0.70;;;6.80;97.80;;;;;;4197329;28;20067;-58
2024/04/20 03:06:40;;;;;;;2.08;0.85;;;6.80;97.80;;;;;;4192963;28;20121;-65
2024/04/20 03:08:41;;;;;;;1.83;0.85;;;6.80;97.90;;;;;;4197310;28;20387;-58
2024/04/20 03:10:42;;;;;;;0.75;0.52;;;6.90;97.80;;;;;;4198909;28;20106;-58
2024/04/20 03:12:43;;;;;;;0.70;0.65;;;6.90;97.60;;;;;;4202604;28;20066;-59
2024/04/20 03:14:44;;;;;;;2.17;0.43;;;6.90;97.20;;;;;;4213873;28;20044;-58
2024/04/20 03:16:46;;;;;;;2.42;0.75;;;6.80;97.00;;;;;;4206796;28;20040;-58
2024/04/20 03:18:48;;;;;;;0.43;0.40;;;6.80;96.90;;;;;;4207685;28;20044;-59
2024/04/20 03:20:51;;;;;;;0.63;0.35;;;6.80;96.80;;;;;;4212638;28;20554;-59
2024/04/20 03:22:52;;;;;;;3.95;2.08;;;6.80;97.00;;;;;;4202354;28;20509;-58
2024/04/20 03:24:53;;;;;;;1.00;0.47;;;6.80;96.70;;;;;;4213873;28;20547;-59
2024/04/20 03:26:54;;;;;;;0.82;0.40;;;6.80;96.80;;;;;;4209440;28;20044;-59
2024/04/20 03:28:56;;;;;;;2.15;0.60;;;6.80;96.90;;;;;;4204700;28;20562;-59
2024/04/20 03:30:57;;;;;;;1.05;0.50;;;6.80;96.80;;;;;;4196969;28;20044;-59
2024/04/20 03:32:58;;;;;;;1.60;0.57;;;6.80;96.80;;;;;;4200988;28;20049;-59
2024/04/20 03:35:00;;;;;;;2.28;0.55;;;6.80;96.30;;;;;;4213403;28;20044;-58
2024/04/20 03:37:08;;;;;;;0.95;0.40;;;6.90;96.40;;;;;;4210450;28;20073;-59
2024/04/20 03:39:10;;;;;;;0.43;0.10;;;6.80;96.10;;;;;;4204697;28;20145;-59
2024/04/20 03:41:11;;;;;;;1.40;0.45;;;6.90;96.10;;;;;;4213408;28;20085;-58
2024/04/20 03:43:13;;;;;;;1.77;0.32;;;6.80;96.20;;;;;;4206395;28;20044;-59
2024/04/20 03:45:14;;;;;;;0.80;0.10;;;6.80;96.20;;;;;;4211804;28;20059;-58
2024/04/20 03:47:15;;;;;;;0.88;0.50;;;6.80;96.00;;;;;;4211131;28;20047;-58
2024/04/20 03:49:17;;;;;;;3.38;0.40;;;6.80;96.10;;;;;;4202644;28;20062;-58
2024/04/20 03:51:18;;;;;;;0.47;0.30;;;6.80;95.90;;;;;;4213440;28;20048;-59
2024/04/20 03:53:22;;;;;;;3.45;1.65;;;6.80;95.90;;;;;;4203453;28;20071;-58
2024/04/20 03:55:24;;;;;;;1.50;0.63;;;6.80;96.20;;;;;;4210574;28;20044;-59
2024/04/20 03:57:28;;;;;;;2.95;0.40;;;6.80;95.90;;;;;;4211703;28;20049;-58
2024/04/20 03:59:30;;;;;;;0.35;0.22;;;6.80;96.10;;;;;;4208509;28;20444;-59
2024/04/20 04:01:31;;;;;;;0.73;0.40;;;6.80;96.30;;;;;;4196535;28;20060;-59
2024/04/20 04:03:32;;;;;;;0.75;0.20;;;6.70;96.10;;;;;;4204784;28;20052;-59
2024/04/20 04:05:34;;;;;;;7.38;2.38;;;6.70;96.40;;;;;;4184140;28;20049;-58
2024/04/20 04:07:35;;;;;;;3.05;1.20;;;6.60;96.20;;;;;;4197612;28;20087;-59
2024/04/20 04:09:37;;;;;;;0.82;0.40;;;6.60;96.80;;;;;;4210807;28;20513;-58
2024/04/20 04:11:39;;;;;;;0.57;0.50;;;6.60;96.60;;;;;;4213176;28;20040;-57
2024/04/20 04:13:40;;;;;;;0.70;0.63;;;6.50;97.10;;;;;;4206102;28;20040;-59
2024/04/20 04:15:42;;;;;;;2.72;1.13;;;6.60;96.60;;;;;;4207735;28;20062;-57
2024/04/20 04:17:46;;;;;;;2.15;0.30;;;6.60;96.70;;;;;;4213272;28;20052;-57
2024/04/20 04:19:47;;;;;;;0.60;0.32;;;6.60;96.80;;;;;;4207432;28;20052;-56
2024/04/20 04:21:48;;;;;;;0.80;0.32;;;6.50;96.90;;;;;;4196297;28;20060;-56
2024/04/20 04:23:50;;;;;;;2.10;0.70;;;6.50;97.10;;;;;;4201616;28;20465;-59
2024/04/20 04:25:53;;;;;;;1.48;0.55;;;6.40;96.90;;;;;;4205839;28;20044;-56
2024/04/20 04:27:54;;;;;;;1.20;0.52;;;6.40;97.30;;;;;;4212779;28;20077;-55
2024/04/20 04:29:55;;;;;;;4.50;0.68;;;6.40;97.50;;;;;;4199808;28;20056;-56
2024/04/20 04:31:56;;;;;;;2.72;0.95;;;6.40;97.00;;;;;;4212837;28;20044;-55
2024/04/20 04:33:58;;;;;;;0.57;0.38;;;6.40;97.00;;;;;;4209200;28;20077;-56
2024/04/20 04:36:00;;;;;;;5.07;1.60;;;6.40;97.00;;;;;;4203529;28;20040;-56
2024/04/20 04:38:01;;;;;;;2.28;1.05;;;6.40;97.00;;;;;;4213027;28;20048;-55
2024/04/20 04:40:03;;;;;;;1.33;0.40;;;6.40;97.20;;;;;;4202267;28;20050;-56
2024/04/20 04:42:07;;;;;;;2.60;1.58;;;6.30;97.10;;;;;;4194370;28;20507;-58
2024/04/20 04:44:08;;;;;;;2.60;1.40;;;6.30;96.80;;;;;;4210709;28;20044;-59
2024/04/20 04:46:09;;;;;;;2.25;1.52;;;6.30;96.80;;;;;;4202200;28;20130;-59
2024/04/20 04:48:10;;;;;;;1.92;0.70;;;6.30;96.80;;;;;;4212791;28;20102;-58
2024/04/20 04:50:12;;;;;;;1.80;0.93;;;6.30;96.80;;;;;;4203568;28;20070;-58
2024/04/20 04:52:13;;;;;;;0.93;0.57;;;6.30;96.80;;;;;;4210132;28;20104;-58
2024/04/20 04:54:14;;;;;;;0.73;0.52;;;6.30;96.70;;;;;;4211443;28;20493;-58
2024/04/20 04:56:15;;;;;;;2.88;0.90;;;6.30;97.00;;;;;;4201417;28;20438;-59
2024/04/20 04:58:18;;;;;;;1.33;1.00;;;6.20;96.70;;;;;;4212651;28;20449;-59
2024/04/20 05:00:20;;;;;;;2.75;0.40;;;6.20;96.70;;;;;;4204648;28;20056;-59
2024/04/20 05:02:21;;;;;;;1.17;0.50;;;6.20;97.10;;;;;;4207133;28;20048;-59
2024/04/20 05:04:22;;;;;;;1.17;0.38;;;6.20;96.70;;;;;;4211763;28;20051;-59
2024/04/20 05:06:26;;;;;;;2.42;0.90;;;6.20;96.70;;;;;;4207394;28;20044;-59
2024/04/20 05:08:27;;;;;;;2.05;1.08;;;6.20;96.70;;;;;;4195868;28;20057;-59
2024/04/20 05:10:29;;;;;;;6.85;1.20;;;6.20;96.60;;;;;;4201113;28;20059;-59
2024/04/20 05:12:30;;;;;;;1.10;0.20;;;6.20;96.70;;;;;;4201977;28;20395;-58
2024/04/20 05:14:32;;;;;;;1.85;0.57;;;6.30;96.80;;;;;;4195539;28;20040;-59
2024/04/20 05:16:34;;;;;;;3.05;0.75;;;6.30;96.60;;;;;;4207412;28;20054;-58
2024/04/20 05:18:35;;;;;;;4.57;0.75;;;6.30;96.50;;;;;;4195436;28;20048;-59
2024/04/20 05:20:37;;;;;;;4.05;2.00;;;6.30;96.40;;;;;;4199248;28;20535;-58
2024/04/20 05:22:38;;;;;;;1.85;0.93;;;6.40;96.60;;;;;;4203988;28;20123;-58
2024/04/20 05:24:39;;;;;;;2.78;0.68;;;6.30;96.20;;;;;;4195441;28;20074;-59
2024/04/20 05:26:41;;;;;;;1.25;0.85;;;6.30;96.40;;;;;;4199119;28;20044;-60
2024/04/20 05:28:43;;;;;;;0.22;0.22;;;6.30;96.50;;;;;;4211156;28;20047;-59
2024/04/20 05:30:47;;;;;;;0.68;0.52;;;6.30;96.60;;;;;;4197594;28;20040;-58
2024/04/20 05:32:48;;;;;;;2.03;0.95;;;6.30;96.50;;;;;;4205648;28;20040;-59
2024/04/20 05:34:50;;;;;;;2.17;0.57;;;6.30;96.50;;;;;;4215667;28;20059;-58
2024/04/20 05:36:51;;;;;;;0.70;0.20;;;6.30;96.70;;;;;;4205214;28;20097;-58
2024/04/20 05:38:52;;;;;;;2.47;0.95;;;6.20;96.50;;;;;;4213066;28;20040;-59
2024/04/20 05:40:53;;;;;;;1.23;0.80;;;6.30;97.00;;;;;;4213592;28;20066;-58
2024/04/20 05:42:54;;;;;;;0.90;0.50;;;6.30;96.50;;;;;;4204190;28;20468;-58
2024/04/20 05:44:56;;;;;;;12.30;1.38;;;6.40;97.10;;;;;;4215656;28;20085;-58
2024/04/20 05:46:58;;;;;;;3.33;0.50;;;6.40;96.40;;;;;;4207260;28;20510;-59
2024/04/20 05:48:59;;;;;;;13.15;1.30;;;6.40;96.10;;;;;;4211132;28;20058;-58
2024/04/20 05:51:01;;;;;;;1.00;0.60;;;6.40;96.10;;;;;;4214100;28;20096;-60
2024/04/20 05:53:02;;;;;;;1.08;0.22;;;6.50;96.10;;;;;;4204482;28;20040;-58
2024/04/20 05:55:05;;;;;;;0.60;0.30;;;6.40;96.30;;;;;;4215617;28;20504;-57
2024/04/20 05:57:08;;;;;;;1.50;0.63;;;6.50;96.10;;;;;;4208680;28;20061;-58
2024/04/20 05:59:09;;;;;;;0.45;0.40;;;6.50;95.90;;;;;;4209758;28;20056;-58
2024/04/20 06:01:12;;;;;;;0.77;0.35;;;6.50;96.00;;;;;;4214030;28;20058;-57
2024/04/20 06:03:15;;;;;;;0.90;0.40;;;6.50;95.80;;;;;;4209595;28;20073;-58
2024/04/20 06:05:16;;;;;;;1.63;1.08;;;6.50;95.80;;;;;;4198395;28;20048;-58
2024/04/20 06:07:17;;;;;;;1.45;0.50;;;6.60;95.90;;;;;;4203191;28;20040;-58
2024/04/20 06:09:18;;;;;;;6.22;0.60;;;6.60;95.70;;;;;;4205435;28;20052;-59
2024/04/20 06:11:20;;;;;;;1.98;1.35;;;6.70;95.50;;;;;;4197892;28;20044;-59
2024/04/20 06:13:21;;;;;;;0.73;0.30;;;6.70;95.40;;;;;;4202084;28;20048;-59
2024/04/20 06:15:22;;;;;;;1.38;0.35;;;6.80;95.40;;;;;;4198204;28;20410;-59
2024/04/20 06:17:23;;;;;;;1.48;0.90;;;6.80;95.40;;;;;;4201407;28;20048;-58
2024/04/20 06:19:26;;;;;;;0.35;0.35;;;6.70;94.70;;;;;;4207382;28;20045;-58
2024/04/20 06:21:27;;;;;;;1.45;0.65;;;6.80;94.80;;;;;;4198004;28;20052;-58
2024/04/20 06:23:28;;;;;;;0.75;0.50;;;6.80;94.80;;;;;;4208727;28;20410;-58
2024/04/20 06:25:30;;;;;;;0.98;0.70;;;6.90;94.70;;;;;;4214362;28;20056;-59
2024/04/20 06:27:35;;;;;;;0.82;0.30;;;6.80;94.60;;;;;;4213263;28;20047;-59
2024/04/20 06:29:36;;;;;;;;;;;6.90;94.90;;;;;;4204500;28;20044;-59
2024/04/20 06:31:37;;;;;;;0.82;0.30;;;7.00;94.50;;;;;;4214788;28;19989;-58
2024/04/20 06:33:38;;;;;;;0.60;0.40;;;7.00;94.50;;;;;;4205261;28;20048;-58
2024/04/20 06:35:41;;;;;;;8.38;1.10;;;7.00;94.30;;;;;;4211231;28;20067;-57
2024/04/20 06:37:42;;;;;;;0.55;0.20;;;7.10;94.30;;;;;;4210575;28;20056;-58
2024/04/20 06:39:46;;;;;;;1.02;0.30;;;7.30;94.10;;;;;;4208765;28;20040;-58
2024/04/20 06:41:47;;;;;;;2.25;0.60;;;7.40;93.90;;;;;;4197431;28;20067;-59
2024/04/20 06:43:52;;;;;;;0.45;0.45;;;7.50;93.60;;;;;;4205441;28;20036;-65
2024/04/20 06:45:54;;;;;;;4.65;0.60;;;7.50;93.30;;;;;;4202866;28;20056;-59
2024/04/20 06:47:57;;;;;;;3.80;0.88;;;7.70;93.70;;;;;;4200609;28;20544;-59
2024/04/20 06:49:58;;;;;;;1.00;0.55;;;7.70;93.20;;;;;;4203047;28;20056;-58
2024/04/20 06:52:03;;;;;;;1.25;0.40;;;7.80;93.30;;;;;;4214677;28;20096;-60
2024/04/20 06:54:05;;;;;;;0.50;0.30;;;7.80;93.00;;;;;;4206981;28;20413;-59
2024/04/20 06:56:09;;;;;;;0.90;0.40;;;7.80;92.90;;;;;;4209147;28;20056;-59
2024/04/20 06:58:10;;;;;;;1.85;1.17;;;7.90;93.30;;;;;;4212860;28;20070;-59
2024/04/20 07:00:13;;;;;;;0.55;0.28;;;8.10;93.30;;;;;;4202699;28;20049;-58
2024/04/20 07:02:14;;;;;;;3.92;0.30;;;8.10;93.10;;;;;;4214079;28;20048;-58
2024/04/20 07:04:15;;;;;;;1.98;0.77;;;8.10;93.00;;;;;;4208080;28;20044;-58
2024/04/20 07:06:16;;;;;;;0.75;0.60;;;8.10;93.10;;;;;;4207209;28;20096;-60
2024/04/20 07:08:19;;;;;;;0.70;0.50;;;8.20;93.00;;;;;;4196987;28;20043;-60
2024/04/20 07:10:20;;;;;;;6.03;1.52;;;8.20;92.40;;;;;;4210365;28;20460;-59
2024/04/20 07:12:21;;;;;;;0.73;0.30;;;8.20;92.40;;;;;;4198140;28;20442;-60
2024/04/20 07:14:22;;;;;;;0.70;0.50;;;8.30;92.70;;;;;;4201116;28;20078;-56
2024/04/20 07:16:24;;;;;;;2.72;0.30;;;8.30;92.60;;;;;;4206137;28;20056;-58
2024/04/20 07:18:25;;;;;;;3.42;1.08;;;8.40;92.50;;;;;;4197487;28;20433;-58
2024/04/20 07:20:26;;;;;;;3.03;0.30;;;8.40;92.30;;;;;;4208594;28;20044;-59
2024/04/20 07:22:28;;;;;;;1.33;0.40;;;8.20;92.30;;;;;;4197995;28;20041;-61
2024/04/20 07:24:30;;;;;;;1.23;0.70;;;8.40;92.40;;;;;;4199126;28;20044;-62
2024/04/20 07:26:31;;;;;;;0.95;0.45;;;8.40;92.20;;;;;;4207336;28;20055;-69
2024/04/20 07:28:33;;;;;;;2.03;0.50;;;8.40;92.00;;;;;;4197033;28;20049;-59
2024/04/20 07:30:34;;;;;;;0.68;0.50;;;8.50;92.30;;;;;;4206630;28;20489;-58
2024/04/20 07:32:35;;;;;;;4.22;0.40;;;8.70;92.30;;;;;;4199237;28;20066;-59
2024/04/20 07:34:37;;;;;;;1.85;0.40;;;8.70;92.00;;;;;;4198182;28;20052;-58
2024/04/20 07:36:38;;;;;;;0.52;0.50;;;8.70;91.90;;;;;;4208078;28;20040;-58
2024/04/20 07:38:39;;;;;;;1.92;0.47;;;8.70;91.80;;;;;;4196607;28;20476;-58
2024/04/20 07:40:42;;;;;;;2.15;0.40;;;8.80;91.90;;;;;;4204308;28;20054;-63
2024/04/20 07:42:43;;;;;;;1.45;0.75;;;8.90;92.10;;;;;;4201949;28;20496;-58
2024/04/20 07:44:45;;;;;;;1.75;1.02;;;8.90;91.90;;;;;;4198131;28;20054;-58
2024/04/20 07:46:56;;;;;;;0.57;0.28;;;8.90;91.80;;;;;;4207831;28;20059;-57
2024/04/20 07:48:57;;;;;;;0.68;0.25;;;9.00;91.70;;;;;;4196621;28;20040;-58
2024/04/20 07:50:59;;;;;;;0.65;0.30;;;9.10;91.60;;;;;;4203606;28;20475;-58
2024/04/20 07:53:00;;;;;;;1.58;0.47;;;9.10;92.20;;;;;;4201518;28;20054;-58
2024/04/20 07:55:02;;;;;;;0.85;0.32;;;9.30;91.90;;;;;;4195999;28;20093;-58
2024/04/20 07:57:05;;;;;;;2.83;0.30;;;9.30;91.60;;;;;;4201885;28;20498;-58
2024/04/20 07:59:06;;;;;;;1.40;0.40;;;9.40;91.60;;;;;;4213510;28;20056;-59
2024/04/20 08:01:07;;;;;;;2.53;0.40;;;9.50;91.40;;;;;;4207583;28;20051;-58
2024/04/20 08:03:09;;;;;;;1.23;0.63;;;9.70;91.20;;;;;;4206246;28;20502;-58
2024/04/20 08:05:10;;;;;;;4.60;0.45;;;9.80;90.70;;;;;;4212816;28;20116;-58
2024/04/20 08:07:11;;;;;;;0.85;0.22;;;9.90;90.90;;;;;;4199934;28;20049;-59
2024/04/20 08:09:12;;;;;;;0.60;0.40;;;9.90;90.60;;;;;;4212749;28;20059;-58
2024/04/20 08:11:15;;;;;;;2.75;0.68;;;10.00;90.70;;;;;;4209226;28;20096;-58
2024/04/20 08:13:17;;;;;;;0.70;0.30;;;10.10;90.50;;;;;;4204331;28;20050;-58
2024/04/20 08:15:19;;;;;;;10.13;1.50;;;10.00;90.30;;;;;;4213222;28;20176;-64
2024/04/20 08:17:20;;;;;;;2.25;0.77;;;10.00;90.30;;;;;;4201335;28;20444;-58
2024/04/20 08:19:21;;;;;;;0.63;0.30;;;10.10;90.60;;;;;;4211648;28;20085;-57
2024/04/20 08:21:22;;;;;;;0.88;0.50;;;10.00;90.30;;;;;;4210523;28;20040;-58
2024/04/20 08:23:23;;;;;;;1.58;0.85;;;10.30;90.30;;;;;;4202045;28;20074;-58
2024/04/20 08:25:27;;;;;;;6.68;1.50;;;10.40;90.10;;;;;;4213005;28;20501;-58
2024/04/20 08:27:30;;;;;;;3.00;0.90;;;10.50;89.30;;;;;;4208362;28;20055;-58
2024/04/20 08:29:33;;;;;;;0.70;0.30;;;10.40;89.30;;;;;;4198460;28;20093;-59
2024/04/20 08:31:34;;;;;;;1.48;0.95;;;10.30;86.70;;;;;;4200032;28;20048;-58
2024/04/20 08:33:36;;;;;;;6.95;0.85;;;10.40;88.00;;;;;;4201388;28;20066;-58
2024/04/20 08:35:37;;;;;;;0.90;0.32;;;10.50;87.70;;;;;;4212369;28;20047;-58
2024/04/20 08:37:39;;;;;;;1.63;0.85;;;10.60;88.70;;;;;;4204175;28;20036;-57
2024/04/20 08:39:41;;;;;;;1.52;0.45;;;10.70;88.30;;;;;;4207754;28;20100;-57
2024/04/20 08:41:48;;;;;;;0.82;0.30;;;10.70;87.20;;;;;;4194296;28;20048;-57
2024/04/20 08:43:52;;;;;;;3.83;0.75;;;10.70;87.30;;;;;;4201219;28;20044;-58
2024/04/20 08:45:57;;;;;;;0.77;0.40;;;10.90;89.00;;;;;;4212707;28;20048;-59
2024/04/20 08:47:58;;;;;;;3.53;0.50;;;11.10;87.90;;;;;;4207343;28;20097;-59
2024/04/20 08:50:00;;;;;;;0.68;0.68;;;11.20;86.10;;;;;;4199748;28;20110;-59
2024/04/20 08:52:02;;;;;;;1.58;0.65;;;11.00;86.30;;;;;;4197259;28;20059;-62
2024/04/20 08:54:05;;;;;;;1.88;0.63;;;10.90;87.60;;;;;;4207050;28;20477;-59
2024/04/20 08:56:07;;;;;;;2.25;0.50;;;10.80;87.60;;;;;;4195832;28;20110;-58
2024/04/20 08:58:09;;;;;;;1.00;0.40;;;10.80;87.40;;;;;;4202397;28;20048;-59
2024/04/20 09:00:11;;;;;;;2.40;0.60;;;10.80;88.50;;;;;;4201652;28;20091;-60
2024/04/20 09:02:18;;;;;;;0.68;0.65;;;10.60;88.50;;;;;;4196712;28;20052;-58
2024/04/20 09:04:19;;;;;;;1.35;0.82;;;10.60;88.50;;;;;;4184429;28;20055;-58
2024/04/20 09:06:21;;;;;;;1.77;1.63;;;10.60;88.00;;;;;;4212487;28;20472;-59
2024/04/20 09:08:24;;;;;;;1.70;0.95;;;10.70;87.60;;;;;;4206583;28;20120;-58
2024/04/20 09:10:25;;;;;;;0.95;0.35;;;10.60;88.10;;;;;;4205535;28;20052;-57
2024/04/20 09:12:26;;;;;;;1.20;1.05;;;10.60;87.50;;;;;;4212233;28;20044;-55
2024/04/20 09:14:28;;;;;;;0.98;0.30;;;10.80;86.80;;;;;;4204204;28;20047;-58
2024/04/20 09:16:30;;;;;;;1.15;0.52;;;10.90;87.10;;;;;;4196148;28;20575;-57
2024/04/20 09:18:32;;;;;;;4.35;1.38;;;11.20;87.50;;;;;;4207397;28;20048;-58
2024/04/20 09:20:35;;;;;;;2.53;0.75;;;11.20;84.70;;;;;;4187599;28;20164;-58
2024/04/20 09:22:37;;;;;;;3.40;1.00;;;11.10;84.10;;;;;;4195821;28;20044;-59
2024/04/20 09:24:38;;;;;;;2.13;0.57;;;11.10;85.40;;;;;;4206457;28;20046;-59
2024/04/20 09:26:39;;;;;;;1.05;0.73;;;11.00;85.70;;;;;;4206475;28;20052;-59
2024/04/20 09:28:42;;;;;;;2.72;0.20;;;11.00;85.60;;;;;;4202971;28;20060;-65
2024/04/20 09:30:47;;;;;;;0.95;0.70;;;11.00;86.40;;;;;;4211807;28;20045;-62
2024/04/20 09:32:48;;;;;;;1.02;0.52;;;11.00;85.10;;;;;;4203725;28;20059;-59
2024/04/20 09:34:51;;;;;;;2.88;1.13;;;11.20;85.90;;;;;;4204817;28;20095;-59
2024/04/20 09:36:53;;;;;;;0.40;0.30;;;11.30;85.60;;;;;;4198258;28;20047;-59
2024/04/20 09:38:54;;;;;;;2.35;0.40;;;11.40;84.20;;;;;;4196949;28;20051;-59
2024/04/20 09:40:57;;;;;;;2.58;0.85;;;11.50;84.00;;;;;;4208354;28;20043;-58
2024/04/20 09:43:02;;;;;;;1.85;1.05;;;11.60;84.40;;;;;;4189895;28;20049;-59
2024/04/20 09:45:06;;;;;;;1.85;0.95;;;11.70;85.10;;;;;;4207502;28;20040;-59
2024/04/20 09:47:07;;;;;;;1.25;0.77;;;11.80;84.30;;;;;;4197652;28;20448;-58
2024/04/20 09:49:11;;;;;;;2.25;0.50;;;11.80;82.60;;;;;;4196665;28;20402;-58
2024/04/20 09:51:20;;;;;;;2.25;0.63;;;11.90;82.80;;;;;;4206135;28;20074;-58
2024/04/20 09:53:29;;;;;;;0.63;0.30;;;11.90;83.20;;;;;;4195043;28;20048;-60
2024/04/20 09:55:32;;;;;;;1.23;0.35;;;11.80;81.20;;;;;;4205935;28;20048;-59
2024/04/20 09:57:34;;;;;;;2.40;0.82;;;11.80;82.30;;;;;;4205417;28;20038;-59
2024/04/20 09:59:37;;;;;;;0.82;0.63;;;11.90;82.60;;;;;;4205939;28;20044;-58
2024/04/20 10:01:38;;;;;;;1.98;0.40;;;11.90;82.70;;;;;;4207453;28;20047;-59
2024/04/20 10:03:41;;;;;;;4.25;1.73;;;12.00;82.20;;;;;;4188088;28;20503;-59
2024/04/20 10:05:43;;;;;;;1.55;1.05;;;12.10;82.10;;;;;;4208811;28;20055;-59
2024/04/20 10:07:49;;;;;;;2.55;0.73;;;12.30;84.10;;;;;;4211526;28;20052;-59
2024/04/20 10:09:51;;;;;;;1.65;0.95;;;12.30;82.70;;;;;;4207897;28;20071;-59
2024/04/20 10:11:53;;;;;;;1.23;0.40;;;12.10;82.60;;;;;;4206178;28;20528;-58
2024/04/20 10:13:56;;;;;;;0.68;0.30;;;11.70;83.80;;;;;;4183173;28;20118;-59
2024/04/20 10:16:00;;;;;;;1.58;0.45;;;11.50;84.60;;;;;;4204862;28;20099;-58
2024/04/20 10:18:01;;;;;;;2.33;0.60;;;11.50;85.20;;;;;;4183509;28;20048;-58
2024/04/20 10:20:05;;;;;;;0.70;0.50;;;11.40;86.70;;;;;;4210528;28;20676;-58
2024/04/20 10:22:07;;;;;;;3.08;0.50;;;11.40;86.10;;;;;;4202453;28;20051;-59
2024/04/20 10:24:10;;;;;;;1.17;0.40;;;11.70;84.30;;;;;;4214881;28;20492;-58
2024/04/20 10:26:11;;;;;;;0.63;0.38;;;11.90;83.20;;;;;;4210309;28;20501;-58
2024/04/20 10:28:23;;;;;;;4.85;1.58;;;12.10;84.30;;;;;;4202788;28;20133;-58
2024/04/20 10:30:25;;;;;;;1.80;0.45;;;12.10;83.70;;;;;;4206682;28;20040;-60
2024/04/20 10:32:26;;;;;;;3.83;1.48;;;12.10;83.20;;;;;;4205714;28;20125;-59
2024/04/20 10:34:27;;;;;;;0.95;0.70;;;12.10;82.60;;;;;;4211247;28;20051;-59
2024/04/20 10:36:29;;;;;;;1.20;0.68;;;12.00;83.20;;;;;;4193300;28;20057;-59
2024/04/20 10:38:31;;;;;;;2.63;0.88;;;11.90;82.70;;;;;;4202969;28;20495;-58
2024/04/20 10:40:35;;;;;;;2.83;0.50;;;11.80;84.40;;;;;;4198144;28;20067;-59
2024/04/20 10:42:36;;;;;;;2.83;1.00;;;11.70;83.70;;;;;;4202870;28;20061;-58